sensor_id;sensor_type;location;lat;lon;timestamp;pressure;altitude;pressure_sealevel;temperature;humidity
48862;BME280;34681;49.188;-0.374;2023-04-29T00:01:02;101535.13;;;16.80;63.11
48862;BME280;34681;49.188;-0.374;2023-04-29T00:03:28;101532.34;;;16.72;63.25
48862;BME280;34681;49.188;-0.374;2023-04-29T00:05:56;101533.81;;;16.66;63.43
48862;BME280;34681;49.188;-0.374;2023-04-29T00:08:21;101539.34;;;16.66;63.39
48862;BME280;34681;49.188;-0.374;2023-04-29T00:10:47;101542.28;;;16.65;63.62
48862;BME280;34681;49.188;-0.374;2023-04-29T00:13:12;101530.78;;;16.77;62.96
48862;BME280;34681;49.188;-0.374;2023-04-29T00:15:39;101537.81;;;16.64;63.38
48862;BME280;34681;49.188;-0.374;2023-04-29T00:18:05;101540.53;;;16.55;63.70
48862;BME280;34681;49.188;-0.374;2023-04-29T00:20:30;101539.41;;;16.74;63.35
48862;BME280;34681;49.188;-0.374;2023-04-29T00:22:56;101536.69;;;16.82;63.29
48862;BME280;34681;49.188;-0.374;2023-04-29T00:25:21;101526.84;;;16.80;63.41
48862;BME280;34681;49.188;-0.374;2023-04-29T00:27:46;101535.13;;;16.80;63.49
48862;BME280;34681;49.188;-0.374;2023-04-29T00:30:12;101538.56;;;16.74;63.58
48862;BME280;34681;49.188;-0.374;2023-04-29T00:32:37;101539.94;;;16.78;63.37
48862;BME280;34681;49.188;-0.374;2023-04-29T00:35:03;101534.78;;;16.83;63.18
48862;BME280;34681;49.188;-0.374;2023-04-29T00:37:28;101530.81;;;16.85;63.18
48862;BME280;34681;49.188;-0.374;2023-04-29T00:39:53;101531.81;;;16.76;63.09
48862;BME280;34681;49.188;-0.374;2023-04-29T00:42:19;101536.03;;;16.63;63.77
48862;BME280;34681;49.188;-0.374;2023-04-29T00:44:44;101532.09;;;16.65;63.48
48862;BME280;34681;49.188;-0.374;2023-04-29T00:47:10;101532.00;;;16.75;63.08
48862;BME280;34681;49.188;-0.374;2023-04-29T00:49:37;101523.63;;;16.67;63.39
48862;BME280;34681;49.188;-0.374;2023-04-29T00:52:03;101531.66;;;16.78;63.08
48862;BME280;34681;49.188;-0.374;2023-04-29T00:54:28;101527.28;;;16.67;63.61
48862;BME280;34681;49.188;-0.374;2023-04-29T00:56:54;101526.38;;;16.58;63.74
48862;BME280;34681;49.188;-0.374;2023-04-29T00:59:21;101522.19;;;16.54;63.74
48862;BME280;34681;49.188;-0.374;2023-04-29T01:01:46;101510.69;;;16.67;63.29
48862;BME280;34681;49.188;-0.374;2023-04-29T01:04:12;101514.88;;;16.71;63.49
48862;BME280;34681;49.188;-0.374;2023-04-29T01:07:03;101509.03;;;16.74;63.59
48862;BME280;34681;49.188;-0.374;2023-04-29T01:10:08;101513.94;;;16.63;63.44
48862;BME280;34681;49.188;-0.374;2023-04-29T01:15:27;101502.56;;;16.57;63.59
48862;BME280;34681;49.188;-0.374;2023-04-29T01:18:03;101508.28;;;16.64;63.53
48862;BME280;34681;49.188;-0.374;2023-04-29T01:20:29;101506.50;;;16.63;63.61
48862;BME280;34681;49.188;-0.374;2023-04-29T01:22:55;101505.47;;;16.48;64.06
48862;BME280;34681;49.188;-0.374;2023-04-29T01:25:20;101509.03;;;16.40;64.32
48862;BME280;34681;49.188;-0.374;2023-04-29T01:31:40;101506.50;;;16.47;63.95
48862;BME280;34681;49.188;-0.374;2023-04-29T01:34:22;101501.78;;;16.39;64.47
48862;BME280;34681;49.188;-0.374;2023-04-29T01:39:44;101516.00;;;16.52;64.00
48862;BME280;34681;49.188;-0.374;2023-04-29T01:42:20;101513.78;;;16.56;63.99
48862;BME280;34681;49.188;-0.374;2023-04-29T01:44:50;101517.03;;;16.51;64.41
48862;BME280;34681;49.188;-0.374;2023-04-29T01:47:17;101513.06;;;16.62;63.76
48862;BME280;34681;49.188;-0.374;2023-04-29T01:49:42;101509.09;;;16.56;64.16
48862;BME280;34681;49.188;-0.374;2023-04-29T01:52:11;101516.53;;;16.56;63.62
48862;BME280;34681;49.188;-0.374;2023-04-29T01:54:36;101514.09;;;16.53;64.12
48862;BME280;34681;49.188;-0.374;2023-04-29T01:57:02;101517.22;;;16.58;63.96
48862;BME280;34681;49.188;-0.374;2023-04-29T01:59:28;101514.06;;;16.45;64.06
48862;BME280;34681;49.188;-0.374;2023-04-29T02:01:53;101509.34;;;16.37;64.10
48862;BME280;34681;49.188;-0.374;2023-04-29T02:04:20;101514.94;;;16.53;63.89
48862;BME280;34681;49.188;-0.374;2023-04-29T02:06:46;101519.28;;;16.56;63.90
48862;BME280;34681;49.188;-0.374;2023-04-29T02:09:11;101517.84;;;16.44;63.99
48862;BME280;34681;49.188;-0.374;2023-04-29T02:11:37;101520.97;;;16.41;64.12
48862;BME280;34681;49.188;-0.374;2023-04-29T02:14:03;101514.06;;;16.45;64.13
48862;BME280;34681;49.188;-0.374;2023-04-29T02:16:28;101519.97;;;16.50;63.96
48862;BME280;34681;49.188;-0.374;2023-04-29T02:18:53;101527.38;;;16.49;64.13
48862;BME280;34681;49.188;-0.374;2023-04-29T02:21:18;101527.47;;;16.32;64.21
48862;BME280;34681;49.188;-0.374;2023-04-29T02:23:44;101528.34;;;16.32;64.74
48862;BME280;34681;49.188;-0.374;2023-04-29T02:26:09;101529.94;;;16.43;64.41
48862;BME280;34681;49.188;-0.374;2023-04-29T02:28:35;101523.16;;;16.37;64.43
48862;BME280;34681;49.188;-0.374;2023-04-29T02:31:01;101525.06;;;16.37;64.55
48862;BME280;34681;49.188;-0.374;2023-04-29T02:33:26;101521.28;;;16.38;64.31
48862;BME280;34681;49.188;-0.374;2023-04-29T02:35:52;101527.00;;;16.44;64.33
48862;BME280;34681;49.188;-0.374;2023-04-29T02:38:17;101533.06;;;16.48;64.21
48862;BME280;34681;49.188;-0.374;2023-04-29T02:40:43;101533.56;;;16.43;64.01
48862;BME280;34681;49.188;-0.374;2023-04-29T02:43:09;101530.78;;;16.43;64.09
48862;BME280;34681;49.188;-0.374;2023-04-29T02:45:35;101535.94;;;16.38;64.07
48862;BME280;34681;49.188;-0.374;2023-04-29T02:48:01;101533.47;;;16.27;64.58
48862;BME280;34681;49.188;-0.374;2023-04-29T02:50:26;101547.66;;;15.80;65.01
48862;BME280;34681;49.188;-0.374;2023-04-29T02:52:52;101550.25;;;15.99;65.35
48862;BME280;34681;49.188;-0.374;2023-04-29T02:55:18;101537.41;;;16.16;64.90
48862;BME280;34681;49.188;-0.374;2023-04-29T02:57:43;101536.03;;;16.20;64.79
48862;BME280;34681;49.188;-0.374;2023-04-29T03:00:09;101534.09;;;16.13;64.91
48862;BME280;34681;49.188;-0.374;2023-04-29T03:02:35;101531.22;;;15.96;65.66
48862;BME280;34681;49.188;-0.374;2023-04-29T03:05:02;101533.06;;;15.88;65.88
48862;BME280;34681;49.188;-0.374;2023-04-29T03:07:27;101540.41;;;16.05;65.65
48862;BME280;34681;49.188;-0.374;2023-04-29T03:09:54;101546.09;;;16.29;64.59
48862;BME280;34681;49.188;-0.374;2023-04-29T03:12:20;101534.84;;;16.23;64.78
48862;BME280;34681;49.188;-0.374;2023-04-29T03:14:45;101536.16;;;16.11;65.27
48862;BME280;34681;49.188;-0.374;2023-04-29T03:17:11;101541.56;;;16.20;65.11
48862;BME280;34681;49.188;-0.374;2023-04-29T03:19:36;101548.66;;;16.23;64.94
48862;BME280;34681;49.188;-0.374;2023-04-29T03:22:02;101550.00;;;16.19;64.80
48862;BME280;34681;49.188;-0.374;2023-04-29T03:24:27;101556.03;;;16.14;65.05
48862;BME280;34681;49.188;-0.374;2023-04-29T03:26:53;101564.72;;;16.27;64.66
48862;BME280;34681;49.188;-0.374;2023-04-29T03:29:19;101560.69;;;16.14;64.92
48862;BME280;34681;49.188;-0.374;2023-04-29T03:31:44;101558.47;;;16.17;64.91
48862;BME280;34681;49.188;-0.374;2023-04-29T03:34:10;101566.09;;;15.97;65.40
48862;BME280;34681;49.188;-0.374;2023-04-29T03:36:35;101580.25;;;16.02;65.02
48862;BME280;34681;49.188;-0.374;2023-04-29T03:39:01;101573.50;;;15.97;65.58
48862;BME280;34681;49.188;-0.374;2023-04-29T03:41:26;101577.94;;;15.90;65.63
48862;BME280;34681;49.188;-0.374;2023-04-29T03:43:51;101575.28;;;15.80;65.74
48862;BME280;34681;49.188;-0.374;2023-04-29T03:46:19;101573.31;;;15.19;67.28
48862;BME280;34681;49.188;-0.374;2023-04-29T03:48:44;101571.28;;;15.21;67.72
48862;BME280;34681;49.188;-0.374;2023-04-29T03:51:10;101564.59;;;15.24;67.89
48862;BME280;34681;49.188;-0.374;2023-04-29T03:53:35;101565.59;;;15.05;68.04
48862;BME280;34681;49.188;-0.374;2023-04-29T03:56:01;101560.84;;;14.52;69.92
48862;BME280;34681;49.188;-0.374;2023-04-29T03:58:27;101560.47;;;14.92;68.83
48862;BME280;34681;49.188;-0.374;2023-04-29T04:00:52;101564.09;;;14.93;68.54
48862;BME280;34681;49.188;-0.374;2023-04-29T04:03:18;101569.13;;;14.97;69.21
48862;BME280;34681;49.188;-0.374;2023-04-29T04:05:44;101563.66;;;15.33;68.13
48862;BME280;34681;49.188;-0.374;2023-04-29T04:08:09;101559.47;;;15.11;68.74
48862;BME280;34681;49.188;-0.374;2023-04-29T04:10:35;101562.06;;;15.12;68.72
48862;BME280;34681;49.188;-0.374;2023-04-29T04:13:00;101568.28;;;15.32;68.50
48862;BME280;34681;49.188;-0.374;2023-04-29T04:15:26;101560.25;;;15.57;67.27
48862;BME280;34681;49.188;-0.374;2023-04-29T04:17:51;101559.69;;;15.71;67.02
48862;BME280;34681;49.188;-0.374;2023-04-29T04:20:16;101550.25;;;15.73;67.22
48862;BME280;34681;49.188;-0.374;2023-04-29T04:22:42;101556.06;;;15.96;65.67
48862;BME280;34681;49.188;-0.374;2023-04-29T04:25:07;101558.34;;;15.75;67.04
48862;BME280;34681;49.188;-0.374;2023-04-29T04:27:33;101564.28;;;15.88;66.72
48862;BME280;34681;49.188;-0.374;2023-04-29T04:29:58;101557.66;;;15.20;66.99
48862;BME280;34681;49.188;-0.374;2023-04-29T04:32:24;101571.97;;;15.05;67.81
48862;BME280;34681;49.188;-0.374;2023-04-29T04:34:49;101577.44;;;15.33;67.47
48862;BME280;34681;49.188;-0.374;2023-04-29T04:37:15;101578.13;;;15.70;66.14
48862;BME280;34681;49.188;-0.374;2023-04-29T04:39:41;101586.00;;;15.83;66.21
48862;BME280;34681;49.188;-0.374;2023-04-29T04:42:07;101587.09;;;15.90;66.15
48862;BME280;34681;49.188;-0.374;2023-04-29T04:44:32;101582.81;;;15.96;66.21
48862;BME280;34681;49.188;-0.374;2023-04-29T04:46:58;101578.47;;;15.93;66.13
48862;BME280;34681;49.188;-0.374;2023-04-29T04:49:25;101583.38;;;15.99;66.12
48862;BME280;34681;49.188;-0.374;2023-04-29T04:51:51;101586.75;;;15.93;66.61
48862;BME280;34681;49.188;-0.374;2023-04-29T04:54:17;101578.44;;;16.11;66.38
48862;BME280;34681;49.188;-0.374;2023-04-29T04:56:42;101590.50;;;16.10;66.00
48862;BME280;34681;49.188;-0.374;2023-04-29T04:59:07;101596.94;;;16.19;65.75
48862;BME280;34681;49.188;-0.374;2023-04-29T05:01:33;101601.94;;;16.15;65.79
48862;BME280;34681;49.188;-0.374;2023-04-29T05:03:58;101607.63;;;16.14;66.29
48862;BME280;34681;49.188;-0.374;2023-04-29T05:06:24;101605.50;;;16.08;66.34
48862;BME280;34681;49.188;-0.374;2023-04-29T05:08:50;101611.38;;;16.13;66.19
48862;BME280;34681;49.188;-0.374;2023-04-29T05:11:16;101615.06;;;16.21;66.00
48862;BME280;34681;49.188;-0.374;2023-04-29T05:13:42;101618.34;;;16.17;66.19
48862;BME280;34681;49.188;-0.374;2023-04-29T05:16:08;101611.94;;;16.16;66.40
48862;BME280;34681;49.188;-0.374;2023-04-29T05:18:33;101626.50;;;16.26;65.88
48862;BME280;34681;49.188;-0.374;2023-04-29T05:20:58;101627.38;;;16.27;65.50
48862;BME280;34681;49.188;-0.374;2023-04-29T05:23:24;101627.03;;;16.30;65.23
48862;BME280;34681;49.188;-0.374;2023-04-29T05:25:49;101623.03;;;16.24;65.58
48862;BME280;34681;49.188;-0.374;2023-04-29T05:28:14;101634.34;;;16.13;65.99
48862;BME280;34681;49.188;-0.374;2023-04-29T05:30:40;101626.56;;;16.09;65.87
48862;BME280;34681;49.188;-0.374;2023-04-29T05:33:05;101626.97;;;15.96;66.30
48862;BME280;34681;49.188;-0.374;2023-04-29T05:35:31;101631.81;;;15.76;66.67
48862;BME280;34681;49.188;-0.374;2023-04-29T05:37:56;101642.94;;;15.66;66.73
48862;BME280;34681;49.188;-0.374;2023-04-29T05:40:21;101638.81;;;15.88;66.99
48862;BME280;34681;49.188;-0.374;2023-04-29T05:42:47;101640.13;;;16.02;66.29
48862;BME280;34681;49.188;-0.374;2023-04-29T05:45:13;101642.56;;;16.05;66.48
48862;BME280;34681;49.188;-0.374;2023-04-29T05:47:38;101644.75;;;16.19;66.13
48862;BME280;34681;49.188;-0.374;2023-04-29T05:50:04;101650.16;;;16.29;65.82
48862;BME280;34681;49.188;-0.374;2023-04-29T05:52:29;101643.41;;;16.23;66.06
48862;BME280;34681;49.188;-0.374;2023-04-29T05:54:55;101642.88;;;16.02;66.67
48862;BME280;34681;49.188;-0.374;2023-04-29T05:57:20;101636.63;;;16.18;66.18
48862;BME280;34681;49.188;-0.374;2023-04-29T05:59:46;101645.59;;;16.20;66.03
48862;BME280;34681;49.188;-0.374;2023-04-29T06:02:11;101647.34;;;16.21;66.24
48862;BME280;34681;49.188;-0.374;2023-04-29T06:04:36;101643.94;;;16.27;66.23
48862;BME280;34681;49.188;-0.374;2023-04-29T06:07:02;101654.97;;;16.27;65.64
48862;BME280;34681;49.188;-0.374;2023-04-29T06:09:29;101649.03;;;15.96;66.29
48862;BME280;34681;49.188;-0.374;2023-04-29T06:11:54;101646.88;;;15.82;66.32
48862;BME280;34681;49.188;-0.374;2023-04-29T06:14:20;101644.47;;;15.51;67.40
48862;BME280;34681;49.188;-0.374;2023-04-29T06:16:45;101659.66;;;15.37;68.20
48862;BME280;34681;49.188;-0.374;2023-04-29T06:19:11;101645.63;;;15.76;67.58
48862;BME280;34681;49.188;-0.374;2023-04-29T06:21:36;101654.00;;;16.10;66.37
48862;BME280;34681;49.188;-0.374;2023-04-29T06:24:02;101658.13;;;15.88;66.73
48862;BME280;34681;49.188;-0.374;2023-04-29T06:26:27;101660.50;;;15.83;66.96
48862;BME280;34681;49.188;-0.374;2023-04-29T06:28:53;101672.78;;;16.07;66.16
48862;BME280;34681;49.188;-0.374;2023-04-29T06:31:19;101674.59;;;16.16;66.48
48862;BME280;34681;49.188;-0.374;2023-04-29T06:33:44;101672.06;;;16.22;66.19
48862;BME280;34681;49.188;-0.374;2023-04-29T06:36:10;101668.50;;;16.12;65.95
48862;BME280;34681;49.188;-0.374;2023-04-29T06:38:36;101665.03;;;16.10;66.26
48862;BME280;34681;49.188;-0.374;2023-04-29T06:41:01;101672.94;;;16.05;66.08
48862;BME280;34681;49.188;-0.374;2023-04-29T06:43:31;101679.78;;;16.19;66.55
48862;BME280;34681;49.188;-0.374;2023-04-29T06:45:56;101680.22;;;16.32;66.41
48862;BME280;34681;49.188;-0.374;2023-04-29T06:48:22;101681.63;;;16.36;66.33
48862;BME280;34681;49.188;-0.374;2023-04-29T06:50:52;101679.78;;;16.45;65.95
48862;BME280;34681;49.188;-0.374;2023-04-29T06:53:18;101684.78;;;16.41;66.09
48862;BME280;34681;49.188;-0.374;2023-04-29T06:55:43;101685.63;;;16.16;65.97
48862;BME280;34681;49.188;-0.374;2023-04-29T06:58:11;101679.41;;;15.78;67.04
48862;BME280;34681;49.188;-0.374;2023-04-29T07:00:37;101684.66;;;15.54;67.50
48862;BME280;34681;49.188;-0.374;2023-04-29T07:03:02;101678.34;;;15.43;68.26
48862;BME280;34681;49.188;-0.374;2023-04-29T07:05:28;101682.75;;;15.82;67.56
48862;BME280;34681;49.188;-0.374;2023-04-29T07:07:53;101680.69;;;16.27;66.13
48862;BME280;34681;49.188;-0.374;2023-04-29T07:10:18;101680.47;;;16.21;66.61
48862;BME280;34681;49.188;-0.374;2023-04-29T07:12:44;101690.13;;;16.17;66.31
48862;BME280;34681;49.188;-0.374;2023-04-29T07:15:09;101688.47;;;15.88;66.69
48862;BME280;34681;49.188;-0.374;2023-04-29T07:17:34;101690.16;;;15.81;67.05
48862;BME280;34681;49.188;-0.374;2023-04-29T07:20:00;101700.00;;;15.84;67.23
48862;BME280;34681;49.188;-0.374;2023-04-29T07:22:26;101701.16;;;15.63;68.19
48862;BME280;34681;49.188;-0.374;2023-04-29T07:24:54;101703.13;;;16.24;66.81
48862;BME280;34681;49.188;-0.374;2023-04-29T07:27:21;101709.53;;;15.71;67.15
48862;BME280;34681;49.188;-0.374;2023-04-29T07:29:46;101712.56;;;15.51;68.50
48862;BME280;34681;49.188;-0.374;2023-04-29T07:32:12;101726.28;;;16.06;67.17
48862;BME280;34681;49.188;-0.374;2023-04-29T07:34:37;101727.47;;;16.47;65.80
48862;BME280;34681;49.188;-0.374;2023-04-29T07:37:02;101721.34;;;16.17;66.30
48862;BME280;34681;49.188;-0.374;2023-04-29T07:39:28;101715.38;;;16.22;66.10
48862;BME280;34681;49.188;-0.374;2023-04-29T07:41:54;101720.91;;;16.30;65.97
48862;BME280;34681;49.188;-0.374;2023-04-29T07:44:20;101723.06;;;16.36;65.77
48862;BME280;34681;49.188;-0.374;2023-04-29T07:46:46;101726.94;;;16.69;65.08
48862;BME280;34681;49.188;-0.374;2023-04-29T07:49:11;101724.25;;;16.34;65.01
48862;BME280;34681;49.188;-0.374;2023-04-29T07:51:40;101725.94;;;15.91;66.44
48862;BME280;34681;49.188;-0.374;2023-04-29T07:54:05;101723.69;;;15.59;67.38
48862;BME280;34681;49.188;-0.374;2023-04-29T07:56:31;101726.78;;;15.56;67.95
48862;BME280;34681;49.188;-0.374;2023-04-29T07:58:56;101731.31;;;15.75;67.88
48862;BME280;34681;49.188;-0.374;2023-04-29T08:01:23;101731.94;;;16.04;66.54
48862;BME280;34681;49.188;-0.374;2023-04-29T08:03:49;101735.50;;;16.14;66.01
48862;BME280;34681;49.188;-0.374;2023-04-29T08:06:14;101732.66;;;16.06;66.14
48862;BME280;34681;49.188;-0.374;2023-04-29T08:08:39;101738.22;;;15.96;66.90
48862;BME280;34681;49.188;-0.374;2023-04-29T08:11:05;101735.97;;;15.92;67.46
48862;BME280;34681;49.188;-0.374;2023-04-29T08:13:30;101739.44;;;15.94;66.91
48862;BME280;34681;49.188;-0.374;2023-04-29T08:15:55;101742.34;;;16.10;66.29
48862;BME280;34681;49.188;-0.374;2023-04-29T08:18:21;101743.22;;;15.93;66.94
48862;BME280;34681;49.188;-0.374;2023-04-29T08:20:47;101742.09;;;15.86;66.97
48862;BME280;34681;49.188;-0.374;2023-04-29T08:23:13;101747.63;;;15.86;67.24
48862;BME280;34681;49.188;-0.374;2023-04-29T08:25:41;101751.31;;;16.30;66.26
48862;BME280;34681;49.188;-0.374;2023-04-29T08:28:07;101754.09;;;16.74;65.60
48862;BME280;34681;49.188;-0.374;2023-04-29T08:30:36;101763.72;;;16.70;65.36
48862;BME280;34681;49.188;-0.374;2023-04-29T08:33:02;101770.16;;;17.04;63.98
48862;BME280;34681;49.188;-0.374;2023-04-29T08:35:27;101760.97;;;17.30;64.40
48862;BME280;34681;49.188;-0.374;2023-04-29T08:37:52;101772.00;;;17.22;63.40
48862;BME280;34681;49.188;-0.374;2023-04-29T08:40:18;101767.69;;;17.27;63.48
48862;BME280;34681;49.188;-0.374;2023-04-29T08:42:44;101776.47;;;17.15;63.57
48862;BME280;34681;49.188;-0.374;2023-04-29T08:45:09;101779.00;;;16.56;64.80
48862;BME280;34681;49.188;-0.374;2023-04-29T08:47:35;101779.09;;;15.75;67.58
48862;BME280;34681;49.188;-0.374;2023-04-29T08:50:03;101775.06;;;15.60;68.38
48862;BME280;34681;49.188;-0.374;2023-04-29T08:52:30;101774.00;;;15.70;68.92
48862;BME280;34681;49.188;-0.374;2023-04-29T08:54:57;101772.63;;;15.84;68.38
48862;BME280;34681;49.188;-0.374;2023-04-29T08:57:25;101778.91;;;16.30;67.06
48862;BME280;34681;49.188;-0.374;2023-04-29T08:59:52;101781.69;;;16.48;66.56
48862;BME280;34681;49.188;-0.374;2023-04-29T09:02:17;101780.19;;;15.82;67.54
48862;BME280;34681;49.188;-0.374;2023-04-29T09:04:58;101789.19;;;15.84;67.68
48862;BME280;34681;49.188;-0.374;2023-04-29T09:07:27;101789.03;;;16.04;67.62
48862;BME280;34681;49.188;-0.374;2023-04-29T09:09:55;101797.47;;;15.84;67.23
48862;BME280;34681;49.188;-0.374;2023-04-29T09:12:21;101799.13;;;15.95;67.57
48862;BME280;34681;49.188;-0.374;2023-04-29T09:14:46;101805.75;;;16.20;66.48
48862;BME280;34681;49.188;-0.374;2023-04-29T09:17:12;101803.56;;;16.06;66.66
48862;BME280;34681;49.188;-0.374;2023-04-29T09:19:37;101802.44;;;16.34;66.13
48862;BME280;34681;49.188;-0.374;2023-04-29T09:22:03;101812.31;;;16.98;65.24
48862;BME280;34681;49.188;-0.374;2023-04-29T09:24:30;101814.78;;;17.44;63.76
48862;BME280;34681;49.188;-0.374;2023-04-29T09:26:56;101817.50;;;17.69;62.80
48862;BME280;34681;49.188;-0.374;2023-04-29T09:29:23;101819.13;;;17.38;61.93
48862;BME280;34681;49.188;-0.374;2023-04-29T09:31:49;101816.47;;;17.02;63.73
48862;BME280;34681;49.188;-0.374;2023-04-29T09:34:14;101814.22;;;17.32;63.19
48862;BME280;34681;49.188;-0.374;2023-04-29T09:36:48;101820.28;;;17.35;61.67
48862;BME280;34681;49.188;-0.374;2023-04-29T09:39:16;101817.81;;;17.58;61.66
48862;BME280;34681;49.188;-0.374;2023-04-29T09:44:26;101816.53;;;17.10;62.41
48862;BME280;34681;49.188;-0.374;2023-04-29T09:46:55;101823.88;;;17.28;61.84
48862;BME280;34681;49.188;-0.374;2023-04-29T09:49:28;101818.81;;;17.49;61.62
48862;BME280;34681;49.188;-0.374;2023-04-29T09:51:58;101816.59;;;18.11;60.78
48862;BME280;34681;49.188;-0.374;2023-04-29T09:54:29;101813.72;;;17.71;60.86
48862;BME280;34681;49.188;-0.374;2023-04-29T09:57:00;101815.16;;;17.83;60.33
48862;BME280;34681;49.188;-0.374;2023-04-29T09:59:30;101811.44;;;18.16;59.97
48862;BME280;34681;49.188;-0.374;2023-04-29T10:01:57;101816.34;;;18.71;58.37
48862;BME280;34681;49.188;-0.374;2023-04-29T10:04:25;101803.19;;;18.73;57.89
48862;BME280;34681;49.188;-0.374;2023-04-29T10:06:53;101811.47;;;18.49;58.08
48862;BME280;34681;49.188;-0.374;2023-04-29T10:09:19;101807.78;;;18.08;59.61
48862;BME280;34681;49.188;-0.374;2023-04-29T10:11:47;101821.03;;;18.71;58.39
48862;BME280;34681;49.188;-0.374;2023-04-29T10:14:18;101810.56;;;18.16;58.52
48862;BME280;34681;49.188;-0.374;2023-04-29T10:16:47;101815.94;;;18.25;59.47
48862;BME280;34681;49.188;-0.374;2023-04-29T10:19:34;101816.53;;;19.42;56.67
48862;BME280;34681;49.188;-0.374;2023-04-29T10:22:08;101812.47;;;19.13;55.97
48862;BME280;34681;49.188;-0.374;2023-04-29T10:24:38;101813.72;;;19.97;56.12
48862;BME280;34681;49.188;-0.374;2023-04-29T10:27:06;101814.28;;;20.46;54.02
48862;BME280;34681;49.188;-0.374;2023-04-29T10:29:33;101815.50;;;19.90;53.83
48862;BME280;34681;49.188;-0.374;2023-04-29T10:32:02;101814.72;;;20.27;53.83
48862;BME280;34681;49.188;-0.374;2023-04-29T10:34:28;101832.59;;;20.79;51.81
48862;BME280;34681;49.188;-0.374;2023-04-29T10:36:54;101826.44;;;21.21;51.22
48862;BME280;34681;49.188;-0.374;2023-04-29T10:39:35;101823.75;;;21.13;49.58
48862;BME280;34681;49.188;-0.374;2023-04-29T10:42:04;101820.78;;;20.76;50.76
48862;BME280;34681;49.188;-0.374;2023-04-29T10:44:30;101824.50;;;21.07;50.87
48862;BME280;34681;49.188;-0.374;2023-04-29T10:47:17;101823.50;;;21.52;49.05
48862;BME280;34681;49.188;-0.374;2023-04-29T10:50:00;101831.16;;;21.65;50.08
48862;BME280;34681;49.188;-0.374;2023-04-29T10:52:26;101828.56;;;21.63;48.66
48862;BME280;34681;49.188;-0.374;2023-04-29T10:55:04;101827.00;;;21.90;48.95
48862;BME280;34681;49.188;-0.374;2023-04-29T10:59:56;101826.34;;;21.73;49.67
48862;BME280;34681;49.188;-0.374;2023-04-29T11:02:21;101829.44;;;21.49;48.02
48862;BME280;34681;49.188;-0.374;2023-04-29T11:05:17;101821.91;;;21.94;48.76
48862;BME280;34681;49.188;-0.374;2023-04-29T11:08:11;101827.72;;;21.77;48.02
48862;BME280;34681;49.188;-0.374;2023-04-29T11:10:40;101835.41;;;21.61;48.41
48862;BME280;34681;49.188;-0.374;2023-04-29T11:13:28;101826.38;;;21.44;48.59
48862;BME280;34681;49.188;-0.374;2023-04-29T11:16:10;101827.81;;;20.87;49.84
48862;BME280;34681;49.188;-0.374;2023-04-29T11:21:21;101823.47;;;21.67;50.21
48862;BME280;34681;49.188;-0.374;2023-04-29T11:23:50;101818.94;;;21.21;51.17
48862;BME280;34681;49.188;-0.374;2023-04-29T11:26:18;101821.09;;;22.00;49.31
48862;BME280;34681;49.188;-0.374;2023-04-29T11:28:44;101824.25;;;21.46;50.13
48862;BME280;34681;49.188;-0.374;2023-04-29T11:31:10;101816.47;;;20.51;51.81
48862;BME280;34681;49.188;-0.374;2023-04-29T11:33:35;101809.91;;;20.21;53.43
48862;BME280;34681;49.188;-0.374;2023-04-29T11:36:02;101818.25;;;21.04;51.83
48862;BME280;34681;49.188;-0.374;2023-04-29T11:38:28;101817.34;;;21.56;50.70
48862;BME280;34681;49.188;-0.374;2023-04-29T11:40:58;101812.72;;;21.34;50.86
48862;BME280;34681;49.188;-0.374;2023-04-29T11:43:24;101801.84;;;21.24;51.21
48862;BME280;34681;49.188;-0.374;2023-04-29T11:45:51;101799.34;;;20.85;52.50
48862;BME280;34681;49.188;-0.374;2023-04-29T11:48:21;101801.59;;;20.21;53.26
48862;BME280;34681;49.188;-0.374;2023-04-29T11:50:50;101794.00;;;20.61;52.87
48862;BME280;34681;49.188;-0.374;2023-04-29T11:53:18;101796.44;;;20.79;52.72
48862;BME280;34681;49.188;-0.374;2023-04-29T11:55:44;101798.88;;;19.82;54.51
48862;BME280;34681;49.188;-0.374;2023-04-29T11:58:10;101796.06;;;19.43;55.42
48862;BME280;34681;49.188;-0.374;2023-04-29T12:00:36;101793.47;;;20.34;54.10
48862;BME280;34681;49.188;-0.374;2023-04-29T12:03:12;101787.41;;;20.76;52.45
48862;BME280;34681;49.188;-0.374;2023-04-29T12:05:37;101786.56;;;20.30;54.33
48862;BME280;34681;49.188;-0.374;2023-04-29T12:08:03;101785.66;;;20.38;53.11
48862;BME280;34681;49.188;-0.374;2023-04-29T12:10:31;101797.44;;;20.40;53.03
48862;BME280;34681;49.188;-0.374;2023-04-29T12:12:56;101795.72;;;20.39;53.40
48862;BME280;34681;49.188;-0.374;2023-04-29T12:15:22;101792.56;;;20.19;53.48
48862;BME280;34681;49.188;-0.374;2023-04-29T12:17:48;101789.78;;;20.19;54.23
48862;BME280;34681;49.188;-0.374;2023-04-29T12:20:14;101791.53;;;20.81;53.37
48862;BME280;34681;49.188;-0.374;2023-04-29T12:22:41;101787.38;;;20.62;53.28
48862;BME280;34681;49.188;-0.374;2023-04-29T12:25:08;101792.19;;;20.68;53.63
48862;BME280;34681;49.188;-0.374;2023-04-29T12:27:34;101787.16;;;20.48;52.81
48862;BME280;34681;49.188;-0.374;2023-04-29T12:30:00;101790.78;;;20.49;53.98
48862;BME280;34681;49.188;-0.374;2023-04-29T12:32:25;101783.91;;;20.37;52.78
48862;BME280;34681;49.188;-0.374;2023-04-29T12:34:51;101784.91;;;19.59;53.27
48862;BME280;34681;49.188;-0.374;2023-04-29T12:37:17;101781.81;;;19.54;53.03
48862;BME280;34681;49.188;-0.374;2023-04-29T12:39:42;101786.22;;;20.02;53.02
48862;BME280;34681;49.188;-0.374;2023-04-29T12:42:14;101770.13;;;19.98;53.90
48862;BME280;34681;49.188;-0.374;2023-04-29T12:44:40;101768.31;;;19.82;54.33
48862;BME280;34681;49.188;-0.374;2023-04-29T12:47:10;101774.44;;;20.00;53.78
48862;BME280;34681;49.188;-0.374;2023-04-29T12:49:36;101776.03;;;19.24;56.59
48862;BME280;34681;49.188;-0.374;2023-04-29T12:52:02;101772.47;;;18.91;57.54
48862;BME280;34681;49.188;-0.374;2023-04-29T12:54:28;101771.72;;;19.14;57.38
48862;BME280;34681;49.188;-0.374;2023-04-29T12:56:54;101775.06;;;18.85;58.29